createdAt,value
2023-05-24T00:00:53.127Z,101934.59
2023-05-24T00:01:44.781Z,101929.97
2023-05-24T00:02:37.823Z,101935.06
2023-05-24T00:03:34.961Z,101930.69
2023-05-24T00:04:30.125Z,101933.22
2023-05-24T00:05:21.847Z,101935.78
2023-05-24T00:06:13.325Z,101936.59
2023-05-24T00:07:04.936Z,101930.63
2023-05-24T00:07:59.782Z,101933.91
2023-05-24T00:09:02.094Z,101931.31
2023-05-24T00:09:53.618Z,101936.50
2023-05-24T00:10:48.408Z,101937.19
2023-05-24T00:11:42.770Z,101929.53
2023-05-24T00:12:36.434Z,101935.53
2023-05-24T00:13:28.984Z,101938.75
2023-05-24T00:14:20.761Z,101932.66
2023-05-24T00:15:14.286Z,101935.06
2023-05-24T00:16:08.884Z,101941.97
2023-05-24T00:17:00.411Z,101935.81
2023-05-24T00:17:52.114Z,101936.78
2023-05-24T00:18:47.172Z,101934.91
2023-05-24T00:19:40.722Z,101933.94
2023-05-24T00:20:32.245Z,101934.56
2023-05-24T00:21:23.798Z,101932.59
2023-05-24T00:22:15.273Z,101932.50
2023-05-24T00:23:06.900Z,101936.81
2023-05-24T00:23:58.550Z,101932.25
2023-05-24T00:24:50.220Z,101937.25
2023-05-24T00:25:41.827Z,101939.56
2023-05-24T00:26:33.512Z,101942.94
2023-05-24T00:27:25.676Z,101940.53
2023-05-24T00:28:18.195Z,101948.31
2023-05-24T00:29:10.904Z,101939.56
2023-05-24T00:30:05.380Z,101949.84
2023-05-24T00:30:58.028Z,101947.94
2023-05-24T00:31:50.716Z,101944.66
2023-05-24T00:32:42.422Z,101945.00
2023-05-24T00:33:41.579Z,101947.50
2023-05-24T00:34:33.096Z,101944.84
2023-05-24T00:35:24.839Z,101946.34
2023-05-24T00:36:18.336Z,101942.88
2023-05-24T00:37:12.929Z,101942.50
2023-05-24T00:38:04.525Z,101949.91
2023-05-24T00:38:56.243Z,101941.09
2023-05-24T00:39:47.735Z,101939.94
2023-05-24T00:40:39.464Z,101941.41
2023-05-24T00:41:31.030Z,101940.16
2023-05-24T00:42:23.816Z,101940.78
2023-05-24T00:43:15.558Z,101943.19
2023-05-24T00:44:07.299Z,101940.41
2023-05-24T00:44:58.968Z,101940.34
2023-05-24T00:46:13.466Z,101935.88
2023-05-24T00:47:05.435Z,101940.06
2023-05-24T00:47:59.758Z,101944.94
2023-05-24T00:48:51.870Z,101943.25
2023-05-24T00:49:43.546Z,101945.22
2023-05-24T00:50:36.850Z,101942.00
2023-05-24T00:51:28.920Z,101947.81
2023-05-24T00:52:21.606Z,101935.59
2023-05-24T00:53:14.125Z,101941.47
2023-05-24T00:54:06.977Z,101945.13
2023-05-24T00:54:58.848Z,101943.44
2023-05-24T00:55:50.448Z,101950.28
2023-05-24T00:56:45.065Z,101946.47
2023-05-24T00:57:39.481Z,101935.03
2023-05-24T00:58:32.827Z,101937.56
2023-05-24T00:59:26.863Z,101941.91
2023-05-24T01:00:18.650Z,101935.84
2023-05-24T01:01:10.540Z,101938.16
2023-05-24T01:02:02.317Z,101932.72
2023-05-24T01:02:55.086Z,101930.81
2023-05-24T01:03:46.930Z,101933.81
2023-05-24T01:04:41.285Z,101939.66
2023-05-24T01:05:33.254Z,101935.00
2023-05-24T01:06:27.289Z,101937.41
2023-05-24T01:07:27.776Z,101942.13
2023-05-24T01:08:42.697Z,101932.22
2023-05-24T01:10:05.218Z,101931.94
2023-05-24T01:11:14.568Z,101933.41
2023-05-24T01:12:25.873Z,101935.50
2023-05-24T01:13:39.249Z,101936.47
2023-05-24T01:14:49.390Z,101939.38
2023-05-24T01:16:05.320Z,101934.81
2023-05-24T01:17:13.325Z,101932.84
2023-05-24T01:18:33.084Z,101934.25
2023-05-24T01:19:43.387Z,101934.88
2023-05-24T01:20:40.148Z,101938.75
2023-05-24T01:22:01.757Z,101942.13
2023-05-24T01:23:13.901Z,101936.78
2023-05-24T01:24:30.589Z,101936.28
2023-05-24T01:25:42.664Z,101928.53
2023-05-24T01:26:47.059Z,101934.56
2023-05-24T01:27:39.047Z,101932.00
2023-05-24T01:28:34.530Z,101942.31
2023-05-24T01:29:28.818Z,101941.53
2023-05-24T01:30:23.554Z,101933.69
2023-05-24T01:31:17.740Z,101933.97
2023-05-24T01:32:10.010Z,101931.31
2023-05-24T01:33:01.741Z,101937.25
2023-05-24T01:33:55.751Z,101929.34
2023-05-24T01:34:50.357Z,101936.97
2023-05-24T01:35:42.628Z,101929.34
2023-05-24T01:36:36.556Z,101931.00
2023-05-24T01:37:28.028Z,101925.97
2023-05-24T01:38:19.515Z,101927.56
2023-05-24T01:39:12.538Z,101931.00
2023-05-24T01:40:06.501Z,101927.56
2023-05-24T01:41:05.841Z,101926.75
2023-05-24T01:42:07.459Z,101933.69
2023-05-24T01:43:42.312Z,101932.47
2023-05-24T01:44:57.865Z,101928.78
2023-05-24T01:46:20.793Z,101933.03
2023-05-24T01:47:35.619Z,101933.88
2023-05-24T01:49:00.128Z,101936.97
2023-05-24T01:50:01.762Z,101931.44
2023-05-24T01:51:00.596Z,101933.63
2023-05-24T01:52:19.836Z,101925.81
2023-05-24T01:53:17.816Z,101929.94
2023-05-24T01:54:13.544Z,101934.72
2023-05-24T01:55:09.392Z,101932.84
2023-05-24T01:56:06.053Z,101936.72
2023-05-24T01:57:00.658Z,101940.00
2023-05-24T01:57:59.039Z,101927.72
2023-05-24T01:58:53.223Z,101930.56
2023-05-24T01:59:46.155Z,101929.97
2023-05-24T02:00:40.770Z,101934.25
2023-05-24T02:01:35.836Z,101929.28
2023-05-24T02:02:28.266Z,101930.09
2023-05-24T02:03:20.488Z,101930.09
2023-05-24T02:04:13.321Z,101928.97
2023-05-24T02:05:05.727Z,101934.72
2023-05-24T02:05:59.404Z,101936.41
2023-05-24T02:06:51.137Z,101933.31
2023-05-24T02:07:42.864Z,101933.84
2023-05-24T02:08:34.413Z,101926.72
2023-05-24T02:09:26.010Z,101925.72
2023-05-24T02:10:17.656Z,101928.78
2023-05-24T02:11:09.816Z,101925.91
2023-05-24T02:12:02.400Z,101922.56
2023-05-24T02:12:56.286Z,101927.00
2023-05-24T02:13:49.914Z,101917.41
2023-05-24T02:14:42.965Z,101922.25
2023-05-24T02:15:36.760Z,101915.00
2023-05-24T02:16:30.815Z,101920.47
2023-05-24T02:17:25.973Z,101915.50
2023-05-24T02:18:18.588Z,101924.53
2023-05-24T02:19:10.099Z,101921.53
2023-05-24T02:20:02.148Z,101919.69
2023-05-24T02:20:54.263Z,101923.72
2023-05-24T02:21:47.441Z,101923.66
2023-05-24T02:22:39.726Z,101923.34
2023-05-24T02:23:31.597Z,101929.28
2023-05-24T02:24:24.611Z,101929.88
2023-05-24T02:25:17.582Z,101931.97
2023-05-24T02:26:11.535Z,101928.50
2023-05-24T02:27:03.844Z,101924.81
2023-05-24T02:27:58.032Z,101936.03
2023-05-24T02:28:49.632Z,101928.09
2023-05-24T02:29:41.934Z,101929.69
2023-05-24T02:30:33.511Z,101920.97
2023-05-24T02:31:28.715Z,101927.72
2023-05-24T02:32:20.545Z,101928.38
2023-05-24T02:33:12.453Z,101927.50
2023-05-24T02:34:04.996Z,101923.94
2023-05-24T02:34:59.299Z,101925.72
2023-05-24T02:35:51.410Z,101925.94
2023-05-24T02:36:44.955Z,101923.16
2023-05-24T02:37:36.661Z,101926.41
2023-05-24T02:38:28.247Z,101921.84
2023-05-24T02:39:20.588Z,101930.16
2023-05-24T02:40:14.782Z,101922.13
2023-05-24T02:41:06.223Z,101923.69
2023-05-24T02:41:58.109Z,101912.19
2023-05-24T02:42:49.934Z,101916.34
2023-05-24T02:43:43.038Z,101917.06
2023-05-24T02:44:36.501Z,101915.03
2023-05-24T02:45:28.354Z,101913.06
2023-05-24T02:46:19.835Z,101914.75
2023-05-24T02:47:11.628Z,101919.00
2023-05-24T02:48:03.772Z,101923.34
2023-05-24T02:48:55.742Z,101919.00
2023-05-24T02:49:47.249Z,101926.06
2023-05-24T02:50:38.794Z,101918.94
2023-05-24T02:51:30.443Z,101916.69
2023-05-24T02:52:23.137Z,101914.88
2023-05-24T02:53:14.769Z,101915.88
2023-05-24T02:54:06.553Z,101914.69
2023-05-24T02:54:58.106Z,101916.69
2023-05-24T02:55:51.161Z,101917.16
2023-05-24T02:56:42.726Z,101912.72
2023-05-24T02:57:37.993Z,101915.97
2023-05-24T02:58:31.791Z,101915.56
2023-05-24T02:59:24.337Z,101915.38
2023-05-24T03:00:16.409Z,101920.31
2023-05-24T03:01:08.847Z,101921.91
2023-05-24T03:02:00.547Z,101917.34
2023-05-24T03:02:52.446Z,101916.34
2023-05-24T03:03:44.057Z,101923.94
2023-05-24T03:04:35.697Z,101914.22
2023-05-24T03:05:27.823Z,101917.50
2023-05-24T03:06:19.543Z,101918.38
2023-05-24T03:07:11.182Z,101919.97
2023-05-24T03:08:02.803Z,101916.50
2023-05-24T03:08:54.404Z,101923.44
2023-05-24T03:09:46.238Z,101921.75
2023-05-24T03:10:37.766Z,101916.22
2023-05-24T03:11:31.266Z,101916.16
2023-05-24T03:12:22.710Z,101916.81
2023-05-24T03:13:14.250Z,101924.47
2023-05-24T03:14:10.870Z,101925.78
2023-05-24T03:15:05.607Z,101916.09
2023-05-24T03:15:57.420Z,101922.31
2023-05-24T03:16:50.781Z,101918.94
2023-05-24T03:17:44.992Z,101917.75
2023-05-24T03:18:41.552Z,101917.34
2023-05-24T03:19:33.085Z,101916.94
2023-05-24T03:20:24.815Z,101920.91
2023-05-24T03:21:20.196Z,101923.06
2023-05-24T03:22:11.995Z,101918.50
2023-05-24T03:23:03.458Z,101921.75
2023-05-24T03:23:56.663Z,101918.97
2023-05-24T03:24:48.838Z,101916.19
2023-05-24T03:25:41.326Z,101922.13
2023-05-24T03:26:32.876Z,101915.00
2023-05-24T03:27:24.448Z,101923.38
2023-05-24T03:28:15.962Z,101915.44
2023-05-24T03:29:08.746Z,101919.03
2023-05-24T03:30:06.699Z,101921.50
2023-05-24T03:31:04.677Z,101916.16
2023-05-24T03:31:56.703Z,101925.66
2023-05-24T03:32:48.697Z,101916.03
2023-05-24T03:33:43.170Z,101922.75
2023-05-24T03:34:34.802Z,101926.13
2023-05-24T03:35:28.516Z,101925.13
2023-05-24T03:36:21.422Z,101926.69
2023-05-24T03:37:13.343Z,101924.78
2023-05-24T03:38:06.595Z,101921.44
2023-05-24T03:39:00.740Z,101928.16
2023-05-24T03:39:54.650Z,101930.72
2023-05-24T03:41:06.386Z,101926.38
2023-05-24T03:41:58.926Z,101922.13
2023-05-24T03:42:52.611Z,101922.13
2023-05-24T03:43:54.672Z,101919.44
2023-05-24T03:44:46.982Z,101918.56
2023-05-24T03:45:40.002Z,101925.50
2023-05-24T03:46:31.874Z,101921.22
2023-05-24T03:47:23.788Z,101927.94
2023-05-24T03:48:15.530Z,101921.00
2023-05-24T03:49:07.925Z,101920.22
2023-05-24T03:50:01.004Z,101924.59
2023-05-24T03:50:53.418Z,101923.81
2023-05-24T03:51:47.067Z,101925.72
2023-05-24T03:52:38.589Z,101926.59
2023-05-24T03:53:32.083Z,101922.22
2023-05-24T03:54:24.796Z,101929.69
2023-05-24T03:55:16.262Z,101920.50
2023-05-24T03:56:07.787Z,101929.91
2023-05-24T03:57:04.069Z,101925.28
2023-05-24T03:57:55.712Z,101926.28
2023-05-24T03:58:47.460Z,101929.84
2023-05-24T03:59:41.091Z,101928.28
2023-05-24T04:00:32.957Z,101932.06
2023-05-24T04:01:33.392Z,101927.59
2023-05-24T04:02:26.909Z,101930.97
2023-05-24T04:03:20.223Z,101929.19
2023-05-24T04:04:12.408Z,101934.09
2023-05-24T04:05:08.221Z,101931.44
2023-05-24T04:06:02.720Z,101936.69
2023-05-24T04:06:56.220Z,101930.44
2023-05-24T04:07:49.558Z,101935.78
2023-05-24T04:08:41.274Z,101936.91
2023-05-24T04:09:34.119Z,101939.00
2023-05-24T04:10:25.724Z,101945.13
2023-05-24T04:11:17.298Z,101942.19
2023-05-24T04:12:10.114Z,101941.72
2023-05-24T04:13:02.109Z,101949.53
2023-05-24T04:13:55.948Z,101942.84
2023-05-24T04:14:47.417Z,101950.47
2023-05-24T04:15:38.955Z,101949.00
2023-05-24T04:16:34.467Z,101951.78
2023-05-24T04:17:34.937Z,101948.00
2023-05-24T04:18:26.802Z,101948.28
2023-05-24T04:19:19.682Z,101945.50
2023-05-24T04:20:12.683Z,101947.97
2023-05-24T04:21:04.329Z,101953.69
2023-05-24T04:21:55.797Z,101949.31
2023-05-24T04:22:50.021Z,101953.41
2023-05-24T04:23:41.603Z,101953.47
2023-05-24T04:24:33.103Z,101959.84
2023-05-24T04:25:27.901Z,101951.31
2023-05-24T04:26:21.152Z,101949.97
2023-05-24T04:27:13.286Z,101949.25
2023-05-24T04:28:06.104Z,101955.81
2023-05-24T04:29:00.531Z,101958.72
2023-05-24T04:29:53.680Z,101951.78
2023-05-24T04:30:46.312Z,101954.16
2023-05-24T04:31:38.047Z,101959.97
2023-05-24T04:32:30.428Z,101965.25
2023-05-24T04:33:25.025Z,101955.03
2023-05-24T04:34:22.101Z,101954.16
2023-05-24T04:35:15.535Z,101952.44
2023-05-24T04:36:08.335Z,101949.78
2023-05-24T04:37:00.381Z,101960.88
2023-05-24T04:37:52.562Z,101959.97
2023-05-24T04:38:46.169Z,101961.09
2023-05-24T04:39:37.709Z,101963.75
2023-05-24T04:40:29.358Z,101962.16
2023-05-24T04:41:22.383Z,101965.06
2023-05-24T04:42:18.489Z,101959.31
2023-05-24T04:43:10.764Z,101960.63
2023-05-24T04:44:02.311Z,101960.84
2023-05-24T04:44:53.886Z,101966.28
2023-05-24T04:45:46.774Z,101966.47
2023-05-24T04:46:38.407Z,101972.53
2023-05-24T04:47:30.017Z,101976.91
2023-05-24T04:48:24.203Z,101978.09
2023-05-24T04:49:15.875Z,101981.56
2023-05-24T04:50:08.188Z,101979.09
2023-05-24T04:51:00.445Z,101982.84
2023-05-24T04:51:53.435Z,101977.72
2023-05-24T04:52:47.099Z,101981.56
2023-05-24T04:53:38.713Z,101985.72
2023-05-24T04:54:30.597Z,101982.97
2023-05-24T04:55:22.153Z,101988.00
2023-05-24T04:56:14.992Z,101985.34
2023-05-24T04:57:06.652Z,101990.59
2023-05-24T04:57:58.505Z,101994.06
2023-05-24T04:58:49.929Z,101985.53
2023-05-24T04:59:41.454Z,101986.53
2023-05-24T05:00:33.043Z,101987.53
2023-05-24T05:01:28.731Z,101993.66
2023-05-24T05:02:22.878Z,101995.44
2023-05-24T05:03:14.672Z,101997.25
2023-05-24T05:04:07.347Z,101993.94
2023-05-24T05:04:59.141Z,101992.34
2023-05-24T05:05:50.657Z,101991.56
2023-05-24T05:06:44.653Z,101990.75
2023-05-24T05:07:36.930Z,101995.13
2023-05-24T05:08:28.449Z,101997.81
2023-05-24T05:09:20.177Z,101995.22
2023-05-24T05:10:11.610Z,101995.34
2023-05-24T05:11:05.310Z,101992.03
2023-05-24T05:11:57.171Z,101991.38
2023-05-24T05:12:48.833Z,101989.78
2023-05-24T05:13:40.591Z,101986.38
2023-05-24T05:14:32.010Z,101994.31
2023-05-24T05:15:24.386Z,101992.81
2023-05-24T05:16:16.131Z,101989.44
2023-05-24T05:17:07.747Z,101993.09
2023-05-24T05:17:59.483Z,101996.78
2023-05-24T05:18:51.194Z,101992.59
2023-05-24T05:19:42.735Z,101990.47
2023-05-24T05:20:34.349Z,102004.56
2023-05-24T05:21:26.085Z,101993.63
2023-05-24T05:22:19.717Z,102004.44
2023-05-24T05:23:11.421Z,102005.00
2023-05-24T05:24:06.512Z,102004.38
2023-05-24T05:24:57.999Z,102002.94
2023-05-24T05:25:49.577Z,102011.09
2023-05-24T05:26:41.769Z,101998.44
2023-05-24T05:27:34.267Z,102006.47
2023-05-24T05:28:27.098Z,102003.16
2023-05-24T05:29:21.744Z,102004.94
2023-05-24T05:30:15.500Z,102004.47
2023-05-24T05:31:07.271Z,102005.56
2023-05-24T05:31:59.086Z,102006.78
2023-05-24T05:32:50.819Z,102001.81
2023-05-24T05:33:42.455Z,102005.66
2023-05-24T05:34:34.063Z,102004.84
2023-05-24T05:35:25.829Z,102004.22
2023-05-24T05:36:19.756Z,102005.19
2023-05-24T05:37:11.631Z,101998.94
2023-05-24T05:38:03.395Z,101996.97
2023-05-24T05:38:57.344Z,102001.47
2023-05-24T05:39:48.771Z,101999.91
2023-05-24T05:40:40.709Z,101992.97
2023-05-24T05:41:32.335Z,101996.34
2023-05-24T05:42:23.806Z,101992.16
2023-05-24T05:43:15.409Z,101993.13
2023-05-24T05:44:09.012Z,102000.19
2023-05-24T05:45:00.633Z,101999.28
2023-05-24T05:45:57.561Z,101994.38
2023-05-24T05:46:49.085Z,101989.44
2023-05-24T05:47:41.118Z,101994.03
2023-05-24T05:48:32.620Z,101995.06
2023-05-24T05:49:24.251Z,101989.41
2023-05-24T05:50:15.988Z,101992.63
2023-05-24T05:51:07.571Z,101994.03
2023-05-24T05:52:01.152Z,101992.25
2023-05-24T05:52:56.570Z,101994.75
2023-05-24T05:53:48.083Z,101986.28
2023-05-24T05:54:39.644Z,101988.88
2023-05-24T05:55:31.370Z,101981.09
2023-05-24T05:56:22.973Z,101986.59
2023-05-24T05:57:16.268Z,101977.94
2023-05-24T05:58:07.937Z,101980.53
2023-05-24T05:58:59.318Z,101981.34
2023-05-24T05:59:51.051Z,101986.53
2023-05-24T06:00:42.787Z,101987.50
2023-05-24T06:01:37.083Z,101986.88
2023-05-24T06:02:28.704Z,101989.94
2023-05-24T06:03:22.713Z,101984.09
2023-05-24T06:04:15.959Z,101993.00
2023-05-24T06:05:08.058Z,101988.97
2023-05-24T06:05:59.593Z,101993.66
2023-05-24T06:06:52.116Z,101984.59
2023-05-24T06:07:47.002Z,101986.69
2023-05-24T06:08:40.709Z,101992.19
2023-05-24T06:09:32.240Z,101983.66
2023-05-24T06:10:23.739Z,101986.41
2023-05-24T06:11:18.299Z,101980.41
2023-05-24T06:12:09.981Z,101982.38
2023-05-24T06:13:02.917Z,101975.56
2023-05-24T06:13:54.468Z,101975.06
2023-05-24T06:14:48.340Z,101984.78
2023-05-24T06:15:40.546Z,101979.75
2023-05-24T06:16:32.553Z,101975.38
2023-05-24T06:17:24.553Z,101976.91
2023-05-24T06:18:16.036Z,101964.91
2023-05-24T06:19:08.021Z,101971.19
2023-05-24T06:20:07.324Z,101966.19
2023-05-24T06:21:01.500Z,101974.50
2023-05-24T06:21:53.460Z,101972.00
2023-05-24T06:22:45.650Z,101973.63
2023-05-24T06:23:37.832Z,101974.44
2023-05-24T06:24:29.890Z,101966.56
2023-05-24T06:25:24.158Z,101970.50
2023-05-24T06:26:15.679Z,101969.69
2023-05-24T06:27:07.233Z,101967.81
2023-05-24T06:27:58.719Z,101969.44
2023-05-24T06:28:51.438Z,101961.81
2023-05-24T06:29:43.001Z,101960.19
2023-05-24T06:30:34.582Z,101957.69
2023-05-24T06:31:26.338Z,101962.19
2023-05-24T06:32:17.815Z,101960.03
2023-05-24T06:33:12.014Z,101960.22
2023-05-24T06:34:04.826Z,101959.94
2023-05-24T06:34:56.500Z,101955.78
2023-05-24T06:35:48.643Z,101959.19
2023-05-24T06:36:43.246Z,101957.47
2023-05-24T06:37:35.158Z,101959.53
2023-05-24T06:38:28.981Z,101962.28
2023-05-24T06:39:25.331Z,101966.81
2023-05-24T06:40:16.812Z,101970.00
2023-05-24T06:41:08.775Z,101970.63
2023-05-24T06:42:00.271Z,101971.66
2023-05-24T06:42:52.993Z,101978.03
2023-05-24T06:43:46.079Z,101984.38
2023-05-24T06:44:37.578Z,101978.72
2023-05-24T06:45:29.248Z,101989.81
2023-05-24T06:46:20.804Z,101982.69
2023-05-24T06:47:12.592Z,101984.06
2023-05-24T06:48:04.631Z,101977.69
2023-05-24T06:48:56.462Z,101976.47
2023-05-24T06:49:53.636Z,101977.63
2023-05-24T06:50:45.705Z,101974.69
2023-05-24T06:51:38.130Z,101977.44
2023-05-24T06:52:29.682Z,101977.19
2023-05-24T06:53:21.598Z,101979.34
2023-05-24T06:54:15.261Z,101973.16
2023-05-24T06:55:06.939Z,101981.47
2023-05-24T06:55:59.402Z,101974.06
2023-05-24T06:56:51.640Z,101974.88
2023-05-24T06:57:43.329Z,101976.38
2023-05-24T06:58:36.510Z,101975.50
2023-05-24T06:59:28.339Z,101973.22
2023-05-24T07:00:20.377Z,101968.31
2023-05-24T07:01:11.970Z,101965.63
2023-05-24T07:02:04.537Z,101966.47
2023-05-24T07:02:56.788Z,101976.44
2023-05-24T07:03:48.494Z,101981.88
2023-05-24T07:04:43.347Z,101973.41
2023-05-24T07:05:35.517Z,101976.38
2023-05-24T07:06:27.433Z,101976.31
2023-05-24T07:07:22.589Z,101966.50
2023-05-24T07:08:14.113Z,101966.19
2023-05-24T07:09:10.288Z,101980.59
2023-05-24T07:10:01.874Z,101977.16
2023-05-24T07:10:54.814Z,101974.34
2023-05-24T07:11:46.364Z,101981.00
2023-05-24T07:12:38.275Z,101982.47
2023-05-24T07:13:29.766Z,101979.75
2023-05-24T07:14:23.083Z,101980.44
2023-05-24T07:15:14.909Z,101977.34
2023-05-24T07:16:06.711Z,101982.41
2023-05-24T07:17:00.981Z,101977.13
2023-05-24T07:17:53.367Z,101973.78
2023-05-24T07:18:45.218Z,101980.84
2023-05-24T07:19:37.228Z,101982.06
2023-05-24T07:20:29.073Z,101987.22
2023-05-24T07:21:21.357Z,101983.50
2023-05-24T07:22:15.211Z,101984.72
2023-05-24T07:23:07.309Z,101986.22
2023-05-24T07:23:58.863Z,101987.53
2023-05-24T07:24:53.136Z,101991.06
2023-05-24T07:25:44.627Z,101991.00
2023-05-24T07:26:36.860Z,102000.47
2023-05-24T07:27:28.302Z,101995.97
2023-05-24T07:28:20.311Z,101990.53
2023-05-24T07:29:11.920Z,101990.94
2023-05-24T07:30:07.788Z,102003.06
2023-05-24T07:31:04.647Z,101997.69
2023-05-24T07:31:56.693Z,101998.47
2023-05-24T07:32:48.411Z,101994.91
2023-05-24T07:33:40.878Z,101998.47
2023-05-24T07:34:32.321Z,102000.81
2023-05-24T07:35:23.948Z,101996.28
2023-05-24T07:36:16.451Z,101991.94
2023-05-24T07:37:07.972Z,101995.03
2023-05-24T07:38:00.921Z,101992.00
2023-05-24T07:38:53.376Z,101994.81
2023-05-24T07:39:47.086Z,102002.78
2023-05-24T07:40:39.664Z,101994.72
2023-05-24T07:41:33.206Z,102000.66
2023-05-24T07:42:24.899Z,102004.88
2023-05-24T07:43:16.450Z,101998.69
2023-05-24T07:44:08.325Z,102004.88
2023-05-24T07:44:59.765Z,101996.63
2023-05-24T07:45:56.399Z,101995.59
2023-05-24T07:46:48.027Z,102014.53
2023-05-24T07:47:39.691Z,102001.59
2023-05-24T07:48:31.664Z,101999.25
2023-05-24T07:49:23.707Z,101998.31
2023-05-24T07:50:15.164Z,102003.03
2023-05-24T07:51:06.889Z,101989.63
2023-05-24T07:51:59.579Z,101999.34
2023-05-24T07:52:51.611Z,101998.41
2023-05-24T07:53:43.094Z,101995.34
2023-05-24T07:54:34.652Z,101992.25
2023-05-24T07:55:27.201Z,101989.06
2023-05-24T07:56:21.566Z,101985.53
2023-05-24T07:57:13.030Z,101985.81
2023-05-24T07:58:04.491Z,101981.59
2023-05-24T07:59:03.306Z,101980.22
2023-05-24T07:59:56.287Z,101981.72
2023-05-24T08:00:47.990Z,101981.41
2023-05-24T08:01:39.570Z,101981.09
2023-05-24T08:02:31.284Z,101981.06
2023-05-24T08:03:25.109Z,101985.81
2023-05-24T08:04:19.008Z,101983.09
2023-05-24T08:05:13.719Z,101979.78
2023-05-24T08:06:06.295Z,101987.53
2023-05-24T08:06:58.330Z,101984.78
2023-05-24T08:07:51.427Z,101985.59
2023-05-24T08:08:42.893Z,101988.13
2023-05-24T08:09:37.554Z,101982.44
2023-05-24T08:10:32.289Z,101992.03
2023-05-24T08:11:25.223Z,101989.81
2023-05-24T08:12:17.322Z,101986.72
2023-05-24T08:13:09.079Z,101977.88
2023-05-24T08:14:00.635Z,101988.16
2023-05-24T08:14:52.137Z,101985.84
2023-05-24T08:15:43.844Z,101989.94
2023-05-24T08:16:35.915Z,101984.66
2023-05-24T08:17:27.690Z,101988.28
2023-05-24T08:18:21.560Z,101983.25
2023-05-24T08:19:13.064Z,101980.38
2023-05-24T08:20:09.598Z,101981.28
2023-05-24T08:21:01.439Z,101984.28
2023-05-24T08:21:54.686Z,101981.88
2023-05-24T08:22:48.563Z,101976.09
2023-05-24T08:23:43.113Z,101985.00
2023-05-24T08:24:34.695Z,101991.16
2023-05-24T08:25:28.603Z,101991.53
2023-05-24T08:26:21.061Z,101990.59
2023-05-24T08:27:12.716Z,101990.13
2023-05-24T08:28:04.530Z,101999.84
2023-05-24T08:28:59.374Z,101991.84
2023-05-24T08:29:50.911Z,101989.31
2023-05-24T08:30:45.143Z,101988.75
2023-05-24T08:31:37.446Z,101984.88
2023-05-24T08:32:29.412Z,101994.56
2023-05-24T08:33:22.850Z,101993.81
2023-05-24T08:34:15.561Z,101997.38
2023-05-24T08:35:19.131Z,102002.38
2023-05-24T08:36:11.532Z,102002.22
2023-05-24T08:37:05.492Z,101995.97
2023-05-24T08:37:57.026Z,101995.81
2023-05-24T08:38:48.644Z,101999.59
2023-05-24T08:39:40.640Z,102001.22
2023-05-24T08:40:32.418Z,101993.38
2023-05-24T08:41:24.138Z,101997.50
2023-05-24T08:42:19.118Z,101999.53
2023-05-24T08:43:12.190Z,101998.03
2023-05-24T08:44:07.475Z,101996.50
2023-05-24T08:45:08.572Z,101993.91
2023-05-24T08:46:02.218Z,101991.97
2023-05-24T08:46:54.772Z,101991.47
2023-05-24T08:47:48.243Z,101985.88
2023-05-24T08:48:47.197Z,101997.16
2023-05-24T08:49:41.086Z,101991.22
2023-05-24T08:50:36.002Z,101982.09
2023-05-24T08:51:30.682Z,101990.59
2023-05-24T08:52:23.391Z,101986.06
2023-05-24T08:53:15.558Z,101983.84
2023-05-24T08:54:10.805Z,101987.19
2023-05-24T08:55:06.694Z,101995.38
2023-05-24T08:55:58.538Z,101983.22
2023-05-24T08:56:51.250Z,101979.38
2023-05-24T08:57:45.774Z,101983.25
2023-05-24T08:58:38.845Z,101983.41
2023-05-24T08:59:30.385Z,101972.56
2023-05-24T09:00:22.165Z,101976.44
2023-05-24T09:01:16.469Z,101973.78
2023-05-24T09:02:13.724Z,101976.00
2023-05-24T09:03:07.190Z,101970.22
2023-05-24T09:04:00.708Z,101977.34
2023-05-24T09:04:53.271Z,101965.53
2023-05-24T09:05:45.650Z,101977.53
2023-05-24T09:06:38.734Z,101977.09
2023-05-24T09:07:33.061Z,101970.34
2023-05-24T09:08:26.190Z,101969.69
2023-05-24T09:09:21.391Z,101981.31
2023-05-24T09:10:13.217Z,101970.56
2023-05-24T09:11:07.880Z,101975.09
2023-05-24T09:12:04.281Z,101978.75
2023-05-24T09:13:05.118Z,101970.78
2023-05-24T09:13:57.521Z,101974.41
2023-05-24T09:14:50.028Z,101971.91
2023-05-24T09:15:41.954Z,101968.19
2023-05-24T09:16:34.461Z,101967.63
2023-05-24T09:17:26.477Z,101966.16
2023-05-24T09:18:18.088Z,101969.66
2023-05-24T09:19:09.911Z,101976.47
2023-05-24T09:20:02.113Z,101966.78
2023-05-24T09:20:53.861Z,101961.72
2023-05-24T09:21:45.554Z,101956.13
2023-05-24T09:22:41.109Z,101962.97
2023-05-24T09:23:34.481Z,101957.25
2023-05-24T09:24:26.721Z,101971.50
2023-05-24T09:25:20.421Z,101957.06
2023-05-24T09:26:12.634Z,101955.00
2023-05-24T09:27:07.400Z,101957.94
2023-05-24T09:28:08.436Z,101953.13
2023-05-24T09:29:02.068Z,101955.69
2023-05-24T09:29:55.731Z,101960.00
2023-05-24T09:30:59.110Z,101964.41
2023-05-24T09:31:56.053Z,101952.47
2023-05-24T09:33:01.621Z,101964.03
2023-05-24T09:33:53.387Z,101972.69
2023-05-24T09:34:48.943Z,101963.00
2023-05-24T09:35:44.920Z,101961.06
2023-05-24T09:36:41.120Z,101959.38
2023-05-24T09:37:36.029Z,101959.94
2023-05-24T09:38:28.212Z,101962.50
2023-05-24T09:39:20.896Z,101958.88
2023-05-24T09:40:20.743Z,101955.72
2023-05-24T09:41:12.366Z,101969.50
2023-05-24T09:42:06.367Z,101962.22
2023-05-24T09:43:09.540Z,101972.47
2023-05-24T09:44:01.926Z,101967.84
2023-05-24T09:45:01.047Z,101967.03
2023-05-24T09:45:54.304Z,101973.38
2023-05-24T09:46:46.224Z,101960.19
2023-05-24T09:47:43.209Z,101973.56
2023-05-24T09:48:34.762Z,101961.97
2023-05-24T09:49:26.593Z,101968.91
2023-05-24T09:50:18.591Z,101965.53
2023-05-24T09:51:11.598Z,101964.78
2023-05-24T09:52:03.365Z,101966.47
2023-05-24T09:52:56.402Z,101963.19
2023-05-24T09:53:49.524Z,101961.41
2023-05-24T09:54:43.149Z,101958.78
2023-05-24T09:55:38.338Z,101959.66
2023-05-24T09:56:30.902Z,101955.75
2023-05-24T09:57:23.087Z,101962.00
2023-05-24T09:58:15.682Z,101959.44
2023-05-24T09:59:08.395Z,101947.31
2023-05-24T10:00:08.378Z,101950.44
2023-05-24T10:01:06.681Z,101945.31
2023-05-24T10:02:12.342Z,101939.38
2023-05-24T10:03:08.706Z,101948.69
2023-05-24T10:04:04.240Z,101948.91
2023-05-24T10:05:00.957Z,101941.78
2023-05-24T10:05:54.420Z,101941.72
2023-05-24T10:06:47.996Z,101937.16
2023-05-24T10:07:43.689Z,101940.91
2023-05-24T10:08:36.415Z,101947.88
2023-05-24T10:09:34.081Z,101937.13
2023-05-24T10:10:30.445Z,101940.97
2023-05-24T10:11:22.339Z,101935.44
2023-05-24T10:12:14.113Z,101940.66
2023-05-24T10:13:05.817Z,101935.75
2023-05-24T10:13:57.932Z,101935.22
2023-05-24T10:14:52.737Z,101933.91